Terminal Aerodrome Forecast
Issued by NWS

Home | Current Version | Previous Version | Text Only | Print | Product List | Glossary On
Versions: 1 2 3 4 5 6 7 8 9 10 11 12 13 14 15 16 17 18 19 20 21 22 23 24 25 26 27 28 29 30 31 32 33 34 35 36 37 38 39
000
FTUS41 KBOX 061724
TAFBAF
TAF
KBAF 061724Z 0618/0718 19004KT P6SM SCT050
     FM070100 19006KT P6SM SCT150
     FM070300 18004KT P6SM BKN100
     FM070600 VRB03KT P6SM BKN020
     FM070900 VRB03KT 5SM BR BKN010
     FM071100 VRB03KT P6SM BKN010
     FM071300 15004KT P6SM BKN040=

USA.gov is the U.S. government's official web portal to all federal, state and local government web resources and services.